地図

経路データ

SID SEASON NUMBER BASIN SUBBASIN NAME ISO_TIME NATURE LAT LON WMO_WIND WMO_PRES WMO_AGENCY TRACK_TYPE DIST2LAND LANDFALL IFLAG USA_AGENCY USA_ATCF_ID USA_LAT USA_LON USA_RECORD USA_STATUS USA_WIND USA_PRES USA_SSHS USA_R34_NE USA_R34_SE USA_R34_SW USA_R34_NW USA_R50_NE USA_R50_SE USA_R50_SW USA_R50_NW USA_R64_NE USA_R64_SE USA_R64_SW USA_R64_NW USA_POCI USA_ROCI USA_RMW USA_EYE TOKYO_LAT TOKYO_LON TOKYO_GRADE TOKYO_WIND TOKYO_PRES TOKYO_R50_DIR TOKYO_R50_LONG TOKYO_R50_SHORT TOKYO_R30_DIR TOKYO_R30_LONG TOKYO_R30_SHORT TOKYO_LAND CMA_LAT CMA_LON CMA_CAT CMA_WIND CMA_PRES HKO_LAT HKO_LON HKO_CAT HKO_WIND HKO_PRES NEWDELHI_LAT NEWDELHI_LON NEWDELHI_GRADE NEWDELHI_WIND NEWDELHI_PRES NEWDELHI_CI NEWDELHI_DP NEWDELHI_POCI REUNION_LAT REUNION_LON REUNION_TYPE REUNION_WIND REUNION_PRES REUNION_TNUM REUNION_CI REUNION_RMW REUNION_R34_NE REUNION_R34_SE REUNION_R34_SW REUNION_R34_NW REUNION_R50_NE REUNION_R50_SE REUNION_R50_SW REUNION_R50_NW REUNION_R64_NE REUNION_R64_SE REUNION_R64_SW REUNION_R64_NW BOM_LAT BOM_LON BOM_TYPE BOM_WIND BOM_PRES BOM_TNUM BOM_CI BOM_RMW BOM_R34_NE BOM_R34_SE BOM_R34_SW BOM_R34_NW BOM_R50_NE BOM_R50_SE BOM_R50_SW BOM_R50_NW BOM_R64_NE BOM_R64_SE BOM_R64_SW BOM_R64_NW BOM_ROCI BOM_POCI BOM_EYE BOM_POS_METHOD BOM_PRES_METHOD NADI_LAT NADI_LON NADI_CAT NADI_WIND NADI_PRES WELLINGTON_LAT WELLINGTON_LON WELLINGTON_WIND WELLINGTON_PRES DS824_LAT DS824_LON DS824_STAGE DS824_WIND DS824_PRES TD9636_LAT TD9636_LON TD9636_STAGE TD9636_WIND TD9636_PRES TD9635_LAT TD9635_LON TD9635_WIND TD9635_PRES TD9635_ROCI NEUMANN_LAT NEUMANN_LON NEUMANN_CLASS NEUMANN_WIND NEUMANN_PRES MLC_LAT MLC_LON MLC_CLASS MLC_WIND MLC_PRES USA_GUST BOM_GUST BOM_GUST_PER REUNION_GUST REUNION_GUST_PER USA_SEAHGT USA_SEARAD_NE USA_SEARAD_SE USA_SEARAD_SW USA_SEARAD_NW STORM_SPEED STORM_DIR
1926266N12143 1926 48 WP MM NOT_NAMED 1926-09-22 22:00:00 NR 11.9000 142.800 main 1595 1585 __________O___ -1 11.9000 142.800 3 8 278
1926266N12143 1926 48 WP MM NOT_NAMED 1926-09-23 00:00:00 NR 11.9404 142.514 main 1585 1583 __________P___ -1 11.9404 142.514 3 8 278
1926266N12143 1926 48 WP MM NOT_NAMED 1926-09-23 03:00:00 NR 11.9980 142.092 main 1583 1570 __________P___ -1 11.9980 142.092 3 8 278
1926266N12143 1926 48 WP MM NOT_NAMED 1926-09-23 06:00:00 NR 12.0489 141.689 main 1570 1563 __________P___ -1 12.0489 141.689 3 8 277
1926266N12143 1926 48 WP MM NOT_NAMED 1926-09-23 09:00:00 NR 12.0894 141.316 main 1563 1559 __________P___ -1 12.0894 141.316 3 7 276
1926266N12143 1926 48 WP MM NOT_NAMED 1926-09-23 10:00:00 NR 12.1000 141.200 main 1559 1551 __________O___ -1 12.1000 141.200 4 7 275
1926266N12143 1926 48 WP MM NOT_NAMED 1926-09-23 12:00:00 NR 12.1167 140.981 main 1551 1539 __________P___ -1 12.1167 140.981 4 6 274
1926266N12143 1926 48 WP MM NOT_NAMED 1926-09-23 15:00:00 NR 12.1355 140.667 main 1539 1528 __________P___ -1 12.1355 140.667 4 6 274
1926266N12143 1926 48 WP MM NOT_NAMED 1926-09-23 18:00:00 NR 12.1554 140.334 main 1535 1521 __________P___ -1 12.1554 140.334 4 7 274
1926266N12143 1926 48 WP MM NOT_NAMED 1926-09-23 21:00:00 NR 12.1859 139.948 main 1521 1517 __________P___ -1 12.1859 139.948 4 8 275
1926266N12143 1926 48 WP MM NOT_NAMED 1926-09-23 22:00:00 NR 12.2000 139.800 main 1517 1492 __________O___ -1 12.2000 139.800 4 10 276
1926266N12143 1926 48 WP MM NOT_NAMED 1926-09-24 00:00:00 NR 12.2388 139.452 main 1492 1430 __________P___ -1 12.2388 139.452 4 11 277
1926266N12143 1926 48 WP MM NOT_NAMED 1926-09-24 03:00:00 NR 12.3096 138.867 main 1430 1359 __________P___ -1 12.3096 138.867 4 12 277
1926266N12143 1926 48 WP MM NOT_NAMED 1926-09-24 06:00:00 NR 12.3895 138.239 main 1359 1296 __________P___ -1 12.3895 138.239 4 12 278
1926266N12143 1926 48 WP MM NOT_NAMED 1926-09-24 09:00:00 NR 12.4726 137.606 main 1296 1274 __________P___ -1 12.4726 137.606 4 12 278
1926266N12143 1926 48 WP MM NOT_NAMED 1926-09-24 10:00:00 NR 12.5000 137.400 main 1274 1242 __________O___ -1 12.5000 137.400 4 11 276
1926266N12143 1926 48 WP MM NOT_NAMED 1926-09-24 12:00:00 NR 12.5332 137.061 main 1242 1189 __________P___ -1 12.5332 137.061 4 10 276
1926266N12143 1926 48 WP MM NOT_NAMED 1926-09-24 15:00:00 NR 12.5831 136.565 main 1189 1126 __________P___ -1 12.5831 136.565 4 10 277
1926266N12143 1926 48 WP MM NOT_NAMED 1926-09-24 18:00:00 NR 12.6504 136.040 main 1126 1064 __________P___ -1 12.6504 136.040 4 11 279
1926266N12143 1926 48 WP MM NOT_NAMED 1926-09-24 21:00:00 NR 12.7541 135.431 main 1064 1043 __________P___ -1 12.7541 135.431 4 13 280
1926266N12143 1926 48 WP MM NOT_NAMED 1926-09-24 22:00:00 NR 12.8000 135.200 main 1043 991 __________O___ -1 12.8000 135.200 4 15 282
1926266N12143 1926 48 WP MM NOT_NAMED 1926-09-25 00:00:00 NR 12.9138 134.659 main 991 901 __________P___ -1 12.9138 134.659 4 17 283
1926266N12143 1926 48 WP MM NOT_NAMED 1926-09-25 03:00:00 NR 13.1220 133.752 main 901 801 __________P___ -1 13.1220 133.752 4 19 284
1926266N12143 1926 48 WP MM NOT_NAMED 1926-09-25 06:00:00 NR 13.3607 132.783 main 803 700 __________P___ -1 13.3607 132.783 4 20 285
1926266N12143 1926 48 WP MM NOT_NAMED 1926-09-25 09:00:00 NR 13.6145 131.813 main 700 682 __________P___ -1 13.6145 131.813 4 19 285
1926266N12143 1926 48 WP MM NOT_NAMED 1926-09-25 10:00:00 NR 13.7000 131.500 main 671 615 __________O___ -1 13.7000 131.500 4 18 286
1926266N12143 1926 48 WP MM NOT_NAMED 1926-09-25 12:00:00 NR 13.8596 130.942 main 615 541 __________P___ -1 13.8596 130.942 4 17 287
1926266N12143 1926 48 WP MM NOT_NAMED 1926-09-25 15:00:00 NR 14.1061 130.132 main 541 479 __________P___ -1 14.1061 130.132 4 16 288
1926266N12143 1926 48 WP MM NOT_NAMED 1926-09-25 18:00:00 NR 14.3588 129.325 main 479 421 __________P___ -1 14.3588 129.325 4 17 288
1926266N12143 1926 48 WP MM NOT_NAMED 1926-09-25 21:00:00 NR 14.6146 128.490 main 421 404 __________P___ -1 14.6146 128.490 4 17 287
1926266N12143 1926 48 WP MM NOT_NAMED 1926-09-25 22:00:00 NR 14.7000 128.200 main 404 359 __________O___ -1 14.7000 128.200 4 19 283
1926266N12143 1926 48 WP MM NOT_NAMED 1926-09-26 00:00:00 NR 14.8304 127.559 main 359 267 __________P___ -1 14.8304 127.559 4 19 282
1926266N12143 1926 48 WP MM NOT_NAMED 1926-09-26 03:00:00 NR 15.0251 126.561 main 267 193 __________P___ -1 15.0251 126.561 4 20 282
1926266N12143 1926 48 WP MM NOT_NAMED 1926-09-26 06:00:00 NR 15.2570 125.559 main 201 173 __________P___ -1 15.2570 125.559 4 20 286
1926266N12143 1926 48 WP MM NOT_NAMED 1926-09-26 09:00:00 NR 15.5700 124.601 main 181 179 __________P___ -1 15.5700 124.601 4 19 290
1926266N12143 1926 48 WP MM NOT_NAMED 1926-09-26 10:00:00 NR 15.7000 124.300 main 190 161 __________O___ -1 15.7000 124.300 4 19 298
1926266N12143 1926 48 WP MM NOT_NAMED 1926-09-26 12:00:00 NR 16.0190 123.731 main 161 54 __________P___ -1 16.0190 123.731 4 19 304
1926266N12143 1926 48 WP MM NOT_NAMED 1926-09-26 15:00:00 NR 16.5869 122.933 main 54 0 __________P___ -1 16.5869 122.933 4 19 309
1926266N12143 1926 48 WP MM NOT_NAMED 1926-09-26 18:00:00 NR 17.2228 122.196 main 0 0 __________P___ -1 17.2228 122.196 4 19 314
1926266N12143 1926 48 WP MM NOT_NAMED 1926-09-26 21:00:00 NR 17.8825 121.516 main 0 0 __________P___ -1 17.8825 121.516 4 18 316
1926266N12143 1926 48 WP MM NOT_NAMED 1926-09-26 22:00:00 NR 18.1000 121.300 main 0 0 __________O___ -1 18.1000 121.300 4 17 319
1926266N12143 1926 48 WP MM NOT_NAMED 1926-09-27 00:00:00 NR 18.5422 120.923 main 0 0 __________P___ -1 18.5422 120.923 4 17 322
1926266N12143 1926 48 WP MM NOT_NAMED 1926-09-27 03:00:00 NR 19.2076 120.403 main 79 79 __________P___ -1 19.2076 120.403 4 16 322
1926266N12143 1926 48 WP MM NOT_NAMED 1926-09-27 06:00:00 NR 19.8295 119.870 main 164 179 __________P___ -1 19.8295 119.870 4 16 316
1926266N12143 1926 48 WP MM NOT_NAMED 1926-09-27 09:00:00 NR 20.3553 119.243 main 228 228 __________P___ -1 20.3553 119.243 4 16 309
1926266N12143 1926 48 WP MM NOT_NAMED 1926-09-27 10:00:00 NR 20.5000 119.000 main 235 235 __________O___ -1 20.5000 119.000 4 17 297
1926266N12143 1926 48 WP MM NOT_NAMED 1926-09-27 12:00:00 NR 20.7358 118.451 main 264 236 __________P___ -1 20.7358 118.451 4 18 289
1926266N12143 1926 48 WP MM NOT_NAMED 1926-09-27 15:00:00 NR 20.9746 117.494 main 236 189 __________P___ -1 20.9746 117.494 4 19 281
1926266N12143 1926 48 WP MM NOT_NAMED 1926-09-27 18:00:00 NR 21.1102 116.423 main 189 151 __________P___ -1 21.1102 116.423 4 21 276
1926266N12143 1926 48 WP MM NOT_NAMED 1926-09-27 21:00:00 NR 21.1828 115.285 main 151 142 __________P___ -1 21.1828 115.285 4 21 274
1926266N12143 1926 48 WP MM NOT_NAMED 1926-09-27 22:00:00 NR 21.2000 114.900 main 137 __________O___ -1 21.2000 114.900 4 22 273

デジタル台風データ・検索

IBTrACS Databaseについて

本データベースは、米国NOAAが公開する1842年以降の世界の熱帯低気圧のベストトラックデータアーカイブInternational Best Track Archive for Climate Stewardship (IBTrACS)を、ウェブで閲覧しやすい形式に変換したものです。

最終更新日:2021-12-03